Time;durP1;ratioP1;P1;durP2;ratioP2;P2;SDS_P1;SDS_P2;PMS_P1;PMS_P2;Temp;Humidity;BMP_temperature;BMP_pressure;BME280_temperature;BME280_humidity;BME280_pressure;Samples;Min_cycle;Max_cycle;Signal;HPM_P1;HPM_P2
2023/07/05 00:00:17;;;;;;;10.32;9.07;;;;;;;-144.30;71.52;84056.81;5039039;28;20663;-47
2023/07/05 00:02:45;;;;;;;10.85;9.90;;;;;;;-144.30;71.66;84114.44;5039397;28;20679;-50
2023/07/05 00:05:12;;;;;;;13.50;9.82;;;;;;;-144.30;72.37;84529.81;5040994;28;20199;-48
2023/07/05 00:07:39;;;;;;;11.27;10.35;;;;;;;-144.30;72.88;84078.69;5037890;28;20665;-49
2023/07/05 00:10:07;;;;;;;10.63;9.48;;;;;;;-144.30;73.07;84104.50;5040650;28;20268;-48
2023/07/05 00:12:35;;;;;;;11.55;10.48;;;;;;;-144.30;72.78;84078.69;5038559;28;20194;-48
2023/07/05 00:15:03;;;;;;;10.65;9.65;;;;;;;-144.30;72.88;84088.63;5039543;28;20569;-49
2023/07/05 00:17:32;;;;;;;12.85;11.10;;;;;;;-144.30;73.00;84104.50;5040729;28;20232;-49
2023/07/05 00:20:00;;;;;;;13.32;11.20;;;;;;;-144.30;73.23;84062.78;5038064;28;20225;-48
2023/07/05 00:22:27;;;;;;;12.18;11.07;;;;;;;-144.30;73.29;84092.59;5038728;28;20192;-49
2023/07/05 00:24:54;;;;;;;11.98;10.88;;;;;;;-144.30;73.26;84156.19;5040524;28;20193;-49
2023/07/05 00:27:21;;;;;;;12.82;11.63;;;;;;;-144.30;73.07;84152.22;5039386;28;20280;-49
2023/07/05 00:29:50;;;;;;;12.10;11.00;;;;;;;-144.30;72.73;84092.59;5038426;28;20189;-48
2023/07/05 00:32:17;;;;;;;11.88;10.77;;;;;;;-144.30;72.42;84088.63;5038843;28;20229;-46
2023/07/05 00:34:44;;;;;;;12.35;11.18;;;;;;;-144.30;72.44;84116.44;5038924;28;20284;-48
2023/07/05 00:37:11;;;;;;;14.30;12.88;;;;;;;-144.30;72.85;84104.50;5040582;28;20196;-49
2023/07/05 00:39:38;;;;;;;15.05;13.50;;;;;;;-144.30;73.34;84146.25;5038465;28;20207;-49
2023/07/05 00:42:06;;;;;;;15.55;14.00;;;;;;;-144.30;73.78;84156.19;5038794;28;20224;-49
2023/07/05 00:44:33;;;;;;;15.05;13.52;;;;;;;-144.30;74.14;84136.31;5040243;28;20640;-49
2023/07/05 00:47:08;;;;;;;17.67;13.57;;;;;;;-144.30;74.19;84195.94;5038970;28;20201;-49
2023/07/05 00:49:37;;;;;;;14.57;13.13;;;;;;;-144.30;74.80;84168.09;5038248;28;20193;-48
2023/07/05 00:52:09;;;;;;;14.55;12.15;;;;;;;-144.30;74.84;84209.84;5038982;28;20193;-48
2023/07/05 00:54:41;;;;;;;14.20;12.85;;;;;;;-144.30;74.95;84203.88;5038135;28;20207;-49
2023/07/05 00:57:14;;;;;;;13.38;12.00;;;;;;;-144.30;75.28;84187.97;5038284;28;20196;-49
2023/07/05 00:59:47;;;;;;;12.70;11.45;;;;;;;-144.30;75.62;84217.78;5038543;28;20198;-48
2023/07/05 01:02:16;;;;;;;13.32;12.00;;;;;;;-144.30;76.12;84263.50;5037927;28;20669;-48
2023/07/05 01:04:44;;;;;;;12.98;11.68;;;;;;;-144.30;76.27;84209.84;5038390;28;20199;-49
2023/07/05 01:07:10;;;;;;;12.18;11.18;;;;;;;-144.30;76.47;84247.59;5039832;28;20215;-49
2023/07/05 01:09:37;;;;;;;12.85;11.57;;;;;;;-144.30;77.08;84241.63;5038147;28;20196;-49
2023/07/05 01:12:15;;;;;;;12.55;11.27;;;;;;;-144.30;77.24;84267.47;5038957;28;20575;-48
2023/07/05 01:14:53;;;;;;;11.68;10.70;;;;;;;-144.30;77.49;84257.53;5038554;28;20199;-49
2023/07/05 01:17:33;;;;;;;12.48;10.75;;;;;;;-144.30;77.42;84251.56;5038462;28;20316;-50
2023/07/05 01:20:13;;;;;;;11.05;10.20;;;;;;;-144.30;77.06;84235.66;5038221;28;20225;-49
2023/07/05 01:23:08;;;;;;;10.63;9.73;;;;;;;-144.30;77.02;84255.53;5038434;28;20650;-48
2023/07/05 01:26:07;;;;;;;10.50;9.52;;;;;;;-144.30;76.76;84229.72;5039649;28;20219;-47
2023/07/05 01:29:11;;;;;;;10.82;9.77;;;;;;;-144.30;77.04;84219.78;5032630;28;20599;-49
2023/07/05 01:31:54;;;;;;;11.05;9.90;;;;;;;-144.30;77.07;84225.75;5010807;28;20199;-48
2023/07/05 01:34:31;;;;;;;11.10;10.10;;;;;;;-144.30;77.05;84251.56;5042612;28;20264;-49
2023/07/05 01:36:58;;;;;;;10.75;9.65;;;;;;;-144.30;76.85;84156.19;5042173;28;20193;-48
2023/07/05 01:39:25;;;;;;;11.65;10.07;;;;;;;-144.30;77.14;84203.88;5042156;28;20193;-49
2023/07/05 01:41:52;;;;;;;11.55;10.45;;;;;;;-144.30;77.46;84201.88;5043454;28;20219;-49
2023/07/05 01:44:19;;;;;;;13.10;10.82;;;;;;;-144.30;77.53;84215.78;5041824;28;20200;-48
2023/07/05 01:46:58;;;;;;;12.43;10.93;;;;;;;-144.30;77.19;84168.09;5041874;28;20246;-48
2023/07/05 01:49:46;;;;;;;11.30;10.30;;;;;;;-144.30;77.37;84197.91;5042869;28;20197;-49
2023/07/05 01:52:22;;;;;;;12.23;11.15;;;;;;;-144.30;77.23;84223.75;5043805;28;20695;-48
2023/07/05 01:55:01;;;;;;;12.00;11.00;;;;;;;-144.30;77.35;84261.50;5042939;28;20197;-48
2023/07/05 01:57:33;;;;;;;12.52;11.32;;;;;;;-144.30;77.30;84209.84;5043062;28;20201;-48
2023/07/05 02:00:03;;;;;;;13.80;11.38;;;;;;;-144.30;77.46;84211.81;5041947;28;20193;-49
2023/07/05 02:02:36;;;;;;;12.65;11.45;;;;;;;-144.30;77.16;84243.63;5041094;28;20269;-49
2023/07/05 02:05:05;;;;;;;14.18;12.32;;;;;;;-144.30;77.50;84217.78;5041997;28;20193;-49
2023/07/05 02:07:33;;;;;;;14.18;12.88;;;;;;;-144.30;77.93;84235.66;5042783;28;20197;-49
2023/07/05 02:10:00;;;;;;;14.50;13.20;;;;;;;-144.30;77.54;84255.53;5041560;28;20277;-48
2023/07/05 02:12:29;;;;;;;15.00;13.35;;;;;;;-144.30;77.60;84110.47;5041000;28;20203;-49
2023/07/05 02:14:56;;;;;;;13.13;11.90;;;;;;;-144.30;77.50;84223.75;5041085;28;20248;-48
2023/07/05 02:17:23;;;;;;;14.15;12.73;;;;;;;-144.30;77.35;84197.91;5041865;28;20202;-49
2023/07/05 02:19:52;;;;;;;13.93;12.70;;;;;;;-144.30;77.61;84235.66;5042261;28;20228;-47
2023/07/05 02:22:19;;;;;;;14.93;13.43;;;;;;;-144.30;77.87;84259.50;5041493;28;20275;-49
2023/07/05 02:24:49;;;;;;;14.73;13.35;;;;;;;-144.30;78.81;84269.47;5040872;28;20193;-48
2023/07/05 02:27:16;;;;;;;15.00;13.40;;;;;;;-144.30;79.47;84297.28;5040792;28;20205;-50
2023/07/05 02:29:43;;;;;;;13.93;12.50;;;;;;;-144.30;80.09;84299.25;5041211;28;20201;-48
2023/07/05 02:32:10;;;;;;;17.33;13.55;;;;;;;-144.30;80.59;84287.34;5042468;28;20205;-46
2023/07/05 02:34:41;;;;;;;14.88;12.80;;;;;;;-144.30;80.74;84335.03;5040690;28;20200;-47
2023/07/05 02:37:10;;;;;;;15.25;13.50;;;;;;;-144.30;80.94;84319.13;5040917;28;20193;-48
2023/07/05 02:39:37;;;;;;;17.75;14.32;;;;;;;-144.30;80.85;84207.84;5039695;28;20199;-48
2023/07/05 02:42:05;;;;;;;14.75;13.25;;;;;;;-144.30;81.34;84319.13;5040660;28;20593;-48
2023/07/05 02:44:32;;;;;;;15.40;13.73;;;;;;;-144.30;81.59;84313.19;5040068;28;20565;-49
2023/07/05 02:46:59;;;;;;;14.25;12.95;;;;;;;-144.30;81.68;84311.19;5041684;28;20195;-49
2023/07/05 02:49:26;;;;;;;17.42;13.25;;;;;;;-144.30;81.81;84309.19;5041873;28;20669;-48
2023/07/05 02:51:54;;;;;;;16.10;13.70;;;;;;;-144.30;81.86;84335.03;5040344;28;20193;-47
2023/07/05 02:54:22;;;;;;;17.60;13.50;;;;;;;-144.30;82.31;84331.06;5041567;28;20197;-48
2023/07/05 02:56:49;;;;;;;15.70;13.63;;;;;;;-144.30;82.44;84327.09;5041878;28;20204;-47
2023/07/05 02:59:16;;;;;;;14.88;13.48;;;;;;;-144.30;82.71;84350.94;5040002;28;20201;-49
2023/07/05 03:01:43;;;;;;;14.20;12.90;;;;;;;-144.30;82.49;84319.13;5041044;28;20618;-49
2023/07/05 03:04:10;;;;;;;15.02;13.52;;;;;;;-144.30;82.51;84327.09;5042200;28;20603;-48
2023/07/05 03:06:37;;;;;;;16.65;12.93;;;;;;;-144.30;82.70;84305.22;5046784;28;20665;-49
2023/07/05 03:09:04;;;;;;;16.90;13.13;;;;;;;-144.30;82.86;84325.09;5051264;28;20208;-49
2023/07/05 03:11:32;;;;;;;15.05;13.25;;;;;;;-144.30;83.05;84376.78;5038342;28;20652;-48
2023/07/05 03:13:59;;;;;;;15.50;13.98;;;;;;;-144.30;83.19;84333.06;5035106;28;20212;-48
2023/07/05 03:16:26;;;;;;;17.48;14.20;;;;;;;-144.30;82.95;84305.22;5042808;28;20712;-49
2023/07/05 03:18:53;;;;;;;15.80;14.38;;;;;;;-144.30;82.57;84323.13;5051123;28;20290;-48
2023/07/05 03:21:20;;;;;;;17.80;14.90;;;;;;;-144.30;82.44;84335.03;5051163;28;20220;-48
2023/07/05 03:23:47;;;;;;;16.50;14.00;;;;;;;-144.30;81.86;84309.19;5051025;28;20207;-47
2023/07/05 03:26:14;;;;;;;16.55;14.25;;;;;;;-144.30;81.80;84303.25;5051508;28;20203;-49
2023/07/05 03:28:43;;;;;;;19.58;14.65;;;;;;;-144.30;81.23;84297.28;5050778;28;20288;-49
2023/07/05 03:31:11;;;;;;;16.42;14.80;;;;;;;-144.30;81.16;84289.31;5051068;28;20200;-47
2023/07/05 03:33:39;;;;;;;16.48;14.13;;;;;;;-144.30;80.72;84271.44;5051015;28;20641;-50
2023/07/05 03:36:08;;;;;;;17.63;13.63;;;;;;;-144.30;80.12;84142.28;5050746;28;20201;-48
2023/07/05 03:38:35;;;;;;;15.73;14.07;;;;;;;-144.30;78.99;84235.66;5050458;28;20199;-48
2023/07/05 03:41:04;;;;;;;15.45;13.68;;;;;;;-144.30;77.87;84215.78;5050531;28;20228;-51
2023/07/05 03:43:35;;;;;;;23.30;13.43;;;;;;;-144.30;76.53;84140.28;5058269;28;20204;-54
2023/07/05 03:46:05;;;;;;;13.77;12.65;;;;;;;-144.30;75.69;84112.47;5050833;28;20596;-51
2023/07/05 03:48:34;;;;;;;15.15;13.70;;;;;;;-144.30;74.64;84086.63;5050470;28;20199;-52
2023/07/05 03:51:01;;;;;;;14.90;13.02;;;;;;;-144.30;73.56;84120.41;5050396;28;20235;-51
2023/07/05 03:53:29;;;;;;;14.52;13.05;;;;;;;-144.30;72.71;84076.69;5050035;28;20513;-57
2023/07/05 03:56:01;;;;;;;14.07;12.70;;;;;;;-144.30;71.73;84015.09;5050060;28;20228;-52
2023/07/05 03:58:27;;;;;;;13.32;12.00;;;;;;;-144.30;68.44;83870.03;5050413;28;20196;-51
2023/07/05 04:01:03;;;;;;;14.23;12.93;;;;;;;-144.30;63.40;83695.19;5050374;28;20200;-50
2023/07/05 04:03:31;;;;;;;14.25;12.93;;;;;;;-144.30;59.61;83506.41;5046536;28;20603;-49
2023/07/05 04:05:58;;;;;;;15.57;12.65;;;;;;;-144.30;56.79;83329.59;5041273;28;20204;-50
2023/07/05 04:08:25;;;;;;;17.52;12.85;;;;;;;-144.30;53.98;83178.59;5040421;28;20219;-50
2023/07/05 04:10:52;;;;;;;14.88;12.15;;;;;;;-144.30;51.16;82960.06;5039727;28;20200;-50
2023/07/05 04:13:19;;;;;;;13.32;11.50;;;;;;;-144.30;47.96;82725.69;5038750;28;20465;-51
2023/07/05 04:15:46;;;;;;;14.48;11.55;;;;;;;-144.30;46.23;82632.31;5039416;28;20199;-50
2023/07/05 04:18:12;;;;;;;16.98;12.07;;;;;;;-144.30;44.96;82427.72;5046872;28;20837;-51
2023/07/05 04:20:41;;;;;;;13.93;12.45;;;;;;;-144.30;43.16;82372.13;5049238;28;20292;-52
2023/07/05 04:23:08;;;;;;;18.50;12.70;;;;;;;-144.30;43.12;82280.75;5049944;28;20632;-51
2023/07/05 04:25:34;;;;;;;19.17;11.73;;;;;;;-144.30;42.01;82241.03;5047878;28;20197;-52
2023/07/05 04:28:02;;;;;;;15.43;11.25;;;;;;;-144.30;40.94;82119.88;5049737;28;20197;-49
2023/07/05 04:30:28;;;;;;;16.13;12.52;;;;;;;-144.30;40.85;82167.53;5047179;28;20205;-52
2023/07/05 04:32:55;;;;;;;15.13;12.00;;;;;;;-144.30;40.58;82109.94;5041842;28;20205;-50
2023/07/05 04:35:22;;;;;;;14.55;12.95;;;;;;;-144.30;39.70;81998.72;5039024;28;20662;-53
2023/07/05 04:37:50;;;;;;;13.27;11.98;;;;;;;-144.30;39.08;81901.41;5046288;28;20594;-51
2023/07/05 04:40:18;;;;;;;13.00;11.73;;;;;;;-144.30;38.65;81772.34;5049761;28;20272;-50
2023/07/05 04:42:45;;;;;;;23.08;11.77;;;;;;;-144.30;37.69;81698.84;5049521;28;20224;-50
2023/07/05 04:45:12;;;;;;;15.20;11.38;;;;;;;-144.30;37.30;81823.97;5049784;28;20196;-49
2023/07/05 04:47:39;;;;;;;16.08;11.45;;;;;;;-144.30;36.79;81494.31;5049286;28;20202;-48
2023/07/05 04:50:07;;;;;;;15.65;11.75;;;;;;;-144.30;36.06;81303.72;5049304;28;20198;-49
2023/07/05 04:52:33;;;;;;;12.50;11.30;;;;;;;-144.30;35.56;81256.06;5049605;28;20633;-49
2023/07/05 04:55:02;;;;;;;13.98;10.85;;;;;;;-144.30;35.14;81234.22;5049559;28;20207;-52
2023/07/05 04:57:29;;;;;;;12.73;11.35;;;;;;;-144.30;35.59;81297.75;5049548;28;20664;-49
2023/07/05 04:59:56;;;;;;;16.52;11.25;;;;;;;-144.30;35.63;81317.59;5049331;28;20609;-51
2023/07/05 05:02:23;;;;;;;12.80;11.55;;;;;;;-144.30;35.54;81264.00;5049102;28;20222;-50
2023/07/05 05:04:50;;;;;;;12.13;11.15;;;;;;;-144.30;35.30;81242.16;5049541;28;20279;-49
2023/07/05 05:07:17;;;;;;;13.20;11.75;;;;;;;-144.30;35.03;81265.97;5055707;28;20231;-50
2023/07/05 05:09:44;;;;;;;13.38;10.70;;;;;;;-144.30;34.94;81107.13;5055837;28;20196;-51
2023/07/05 05:12:12;;;;;;;14.10;11.23;;;;;;;-144.30;34.03;80988.00;5055388;28;20731;-50
2023/07/05 05:14:39;;;;;;;13.10;11.18;;;;;;;-144.30;33.40;80908.59;5055725;28;20234;-50
2023/07/05 05:17:07;;;;;;;12.00;10.75;;;;;;;-144.30;33.38;80829.19;5055704;28;20667;-50
2023/07/05 05:19:34;;;;;;;12.18;11.05;;;;;;;-144.30;33.41;80890.72;5055485;28;20318;-48
2023/07/05 05:22:01;;;;;;;12.45;11.18;;;;;;;-144.30;33.49;80920.50;5055747;28;20231;-48
2023/07/05 05:24:28;;;;;;;11.88;10.85;;;;;;;-144.30;32.83;80751.75;5056029;28;20686;-49
2023/07/05 05:26:55;;;;;;;14.70;11.23;;;;;;;-144.30;32.50;80932.41;5052136;28;20584;-50
2023/07/05 05:29:23;;;;;;;18.38;10.45;;;;;;;-144.30;32.27;80608.81;5035756;28;20192;-48
2023/07/05 05:31:50;;;;;;;15.18;10.88;;;;;;;-144.30;32.04;80485.75;5036000;28;20272;-49
2023/07/05 05:34:17;;;;;;;12.48;11.10;;;;;;;-144.30;33.04;80799.41;5035860;28;20200;-49
2023/07/05 05:36:44;;;;;;;23.17;11.75;;;;;;;-144.30;33.27;80803.38;5035329;28;20204;-49
2023/07/05 05:39:14;;;;;;;13.48;11.70;;;;;;;-144.30;32.95;80823.22;5035740;28;20197;-50
2023/07/05 05:41:40;;;;;;;15.30;11.45;;;;;;;-144.30;33.21;80853.00;5035478;28;20225;-50
2023/07/05 05:44:07;;;;;;;14.48;11.38;;;;;;;-144.30;32.75;80753.75;5035608;28;20686;-51
2023/07/05 05:46:36;;;;;;;12.77;11.45;;;;;;;-144.30;33.53;80968.16;5035561;28;20235;-50
2023/07/05 05:49:03;;;;;;;14.32;11.65;;;;;;;-144.30;34.15;81168.69;5035630;28;20197;-51
2023/07/05 05:51:30;;;;;;;12.20;11.07;;;;;;;-144.30;33.91;81021.75;5035784;28;20722;-49
2023/07/05 05:53:56;;;;;;;12.57;11.57;;;;;;;-144.30;34.34;81166.69;5035763;28;20584;-50
2023/07/05 05:56:23;;;;;;;13.25;11.88;;;;;;;-144.30;34.05;81091.25;5035868;28;20307;-49
2023/07/05 05:58:50;;;;;;;16.73;12.15;;;;;;;-144.30;33.56;81045.59;5035378;28;20196;-48
2023/07/05 06:01:19;;;;;;;12.57;11.48;;;;;;;-144.30;32.85;80835.13;5035838;28;20202;-48
2023/07/05 06:03:48;;;;;;;13.00;12.00;;;;;;;-144.30;33.26;80926.47;5035666;28;20220;-48
2023/07/05 06:06:15;;;;;;;12.93;11.63;;;;;;;-144.30;34.19;81186.56;5035717;28;20676;-52
2023/07/05 06:08:42;;;;;;;12.95;11.95;;;;;;;-144.30;34.23;81136.91;5035394;28;20591;-51
2023/07/05 06:11:09;;;;;;;13.38;11.80;;;;;;;-144.30;33.47;80898.66;5035485;28;20283;-50
2023/07/05 06:13:36;;;;;;;16.02;11.95;;;;;;;-144.30;32.64;80779.56;5035351;28;20691;-51
2023/07/05 06:16:05;;;;;;;13.73;12.40;;;;;;;-144.30;32.45;80725.94;5035656;28;20211;-49
2023/07/05 06:18:31;;;;;;;19.73;12.65;;;;;;;-144.30;32.75;80870.88;5032242;28;20197;-48
2023/07/05 06:21:00;;;;;;;13.75;12.52;;;;;;;-144.30;33.29;81041.63;5032270;28;20203;-50
2023/07/05 06:23:27;;;;;;;13.38;12.10;;;;;;;-144.30;33.61;81113.09;5032066;28;20231;-49
2023/07/05 06:25:53;;;;;;;13.57;12.60;;;;;;;-144.30;33.54;81132.94;5031915;28;20203;-49
2023/07/05 06:28:20;;;;;;;15.93;12.77;;;;;;;-144.30;33.77;81152.81;5047594;28;20203;-49
2023/07/05 06:30:48;;;;;;;13.63;12.40;;;;;;;-144.30;34.06;81275.91;5040590;28;20196;-49
2023/07/05 06:33:15;;;;;;;13.00;12.00;;;;;;;-144.30;33.81;81172.66;5042496;28;20196;-49
2023/07/05 06:35:47;;;;;;;12.90;11.80;;;;;;;-144.30;33.86;81140.91;5041704;28;20569;-50
2023/07/05 06:38:16;;;;;;;15.98;13.15;;;;;;;-144.30;33.58;81031.69;5040254;28;20188;-51
2023/07/05 06:40:42;;;;;;;13.52;12.32;;;;;;;-144.30;34.49;81315.63;5040756;28;20207;-50
2023/07/05 06:43:09;;;;;;;13.63;12.63;;;;;;;-144.30;35.11;81496.31;5041825;28;20598;-50
2023/07/05 06:45:36;;;;;;;15.00;13.77;;;;;;;-144.30;35.92;81673.03;5039871;28;20294;-49
2023/07/05 06:48:03;;;;;;;15.15;13.38;;;;;;;-144.30;36.29;81688.94;5050654;28;20210;-48
2023/07/05 06:50:30;;;;;;;14.38;13.15;;;;;;;-144.30;36.87;81752.47;5039073;28;20832;-48
2023/07/05 06:52:57;;;;;;;15.52;14.05;;;;;;;-144.30;37.17;81792.19;5030804;28;20280;-49
2023/07/05 06:55:25;;;;;;;13.90;12.80;;;;;;;-144.30;36.96;81750.50;5031038;28;20201;-50
2023/07/05 06:57:52;;;;;;;15.68;13.23;;;;;;;-144.30;36.73;81681.00;5031174;28;20201;-50
2023/07/05 07:00:20;;;;;;;16.75;14.90;;;;;;;-144.30;36.46;81607.50;5031175;28;20247;-50
2023/07/05 07:02:47;;;;;;;15.40;13.95;;;;;;;-144.30;36.07;81450.66;5031235;28;20742;-49
2023/07/05 07:05:15;;;;;;;16.15;14.18;;;;;;;-144.30;36.68;81669.06;5030938;28;20583;-48
2023/07/05 07:07:42;;;;;;;14.73;13.32;;;;;;;-144.30;37.04;81732.63;5030252;28;20989;-49
2023/07/05 07:10:09;;;;;;;15.73;14.07;;;;;;;-144.30;37.23;81728.66;5030993;28;20591;-49
2023/07/05 07:12:37;;;;;;;16.42;14.70;;;;;;;-144.30;37.41;81718.72;5030482;28;20208;-51
2023/07/05 07:15:04;;;;;;;16.40;14.80;;;;;;;-144.30;37.17;81696.88;5030610;28;20208;-48
2023/07/05 07:17:31;;;;;;;15.40;14.10;;;;;;;-144.30;36.48;81557.88;5030838;28;20201;-50
2023/07/05 07:19:58;;;;;;;15.38;13.95;;;;;;;-144.30;36.37;81605.53;5046645;28;20270;-48
2023/07/05 07:22:25;;;;;;;15.68;14.07;;;;;;;-144.30;37.61;81841.84;5050128;28;20230;-52
2023/07/05 07:24:52;;;;;;;16.00;14.55;;;;;;;-144.30;38.10;81833.91;5050222;28;20199;-49
2023/07/05 07:27:19;;;;;;;14.57;13.18;;;;;;;-144.30;37.64;81686.94;5050387;28;20205;-49
2023/07/05 07:29:48;;;;;;;16.23;14.70;;;;;;;-144.30;37.30;81627.38;5049791;28;20684;-50
2023/07/05 07:32:15;;;;;;;14.93;13.73;;;;;;;-144.30;37.46;81804.09;5050452;28;20197;-50
2023/07/05 07:34:42;;;;;;;15.52;14.15;;;;;;;-144.30;37.37;81774.31;5050049;28;20300;-49
2023/07/05 07:37:09;;;;;;;15.88;14.30;;;;;;;-144.30;37.45;81732.63;5050236;28;20206;-49
2023/07/05 07:39:36;;;;;;;15.35;14.05;;;;;;;-144.30;37.55;81716.72;5049936;28;20212;-50
2023/07/05 07:42:03;;;;;;;20.08;13.68;;;;;;;-144.30;36.99;81577.72;5050176;28;20668;-49
2023/07/05 07:44:30;;;;;;;17.27;15.43;;;;;;;-144.30;36.09;81593.63;5049992;28;20196;-47
2023/07/05 07:46:58;;;;;;;15.32;13.80;;;;;;;-144.30;36.33;81585.66;5050042;28;20598;-51
2023/07/05 07:49:25;;;;;;;15.57;13.93;;;;;;;-144.30;35.90;81502.28;5050139;28;20265;-47
2023/07/05 07:51:52;;;;;;;16.60;14.93;;;;;;;-144.30;35.69;81442.69;5049910;28;20207;-48
2023/07/05 07:54:26;;;;;;;16.02;14.40;;;;;;;-144.30;35.93;81450.66;5049942;28;20198;-49
2023/07/05 07:56:55;;;;;;;16.48;14.77;;;;;;;-144.30;35.73;81403.00;5049573;28;20345;-51
2023/07/05 07:59:23;;;;;;;15.10;13.75;;;;;;;-144.30;35.16;81335.47;5049735;28;20577;-50
2023/07/05 08:01:50;;;;;;;18.48;15.63;;;;;;;-144.30;36.05;81541.97;5049147;28;20200;-48
2023/07/05 08:04:19;;;;;;;16.00;14.48;;;;;;;-144.30;36.42;81553.91;5049616;28;20224;-50
2023/07/05 08:06:48;;;;;;;15.15;13.73;;;;;;;-144.30;35.58;81454.63;5047662;28;20204;-53
2023/07/05 08:09:16;;;;;;;23.25;15.98;;;;;;;-144.30;35.10;81347.38;5043919;28;20200;-50
2023/07/05 08:11:43;;;;;;;15.75;14.15;;;;;;;-144.30;34.42;81224.28;5039266;28;20602;-50
2023/07/05 08:14:13;;;;;;;16.70;15.07;;;;;;;-144.30;34.80;81335.47;5038343;28;20995;-50
2023/07/05 08:16:40;;;;;;;16.13;14.77;;;;;;;-144.30;35.78;81482.41;5046049;28;20195;-50
2023/07/05 08:19:08;;;;;;;15.50;13.95;;;;;;;-144.30;35.35;81397.03;5049692;28;20227;-49
2023/07/05 08:21:36;;;;;;;15.55;14.05;;;;;;;-144.30;34.59;81156.78;5049286;28;20669;-50
2023/07/05 08:24:04;;;;;;;18.63;14.30;;;;;;;-144.30;33.67;81021.75;5028750;28;20243;-49
2023/07/05 08:26:31;;;;;;;15.75;14.20;;;;;;;-144.30;33.38;80866.91;5028397;28;20238;-50
2023/07/05 08:28:58;;;;;;;15.43;14.20;;;;;;;-144.30;33.40;80882.78;5029101;28;20279;-48
2023/07/05 08:31:26;;;;;;;15.90;14.32;;;;;;;-144.30;33.19;80890.72;5029489;28;20208;-51
2023/07/05 08:33:52;;;;;;;15.52;14.07;;;;;;;-144.30;33.04;80793.44;5029326;28;20663;-49
2023/07/05 08:36:31;;;;;;;15.20;13.98;;;;;;;-144.30;32.76;80672.34;5029230;28;20203;-49
2023/07/05 08:39:02;;;;;;;15.95;14.57;;;;;;;-144.30;32.68;80775.59;5029341;28;20673;-50
2023/07/05 08:41:42;;;;;;;14.85;13.45;;;;;;;-144.30;32.87;80862.94;5028543;28;20255;-49
2023/07/05 08:44:20;;;;;;;15.35;13.93;;;;;;;-144.30;33.16;80839.13;5047296;28;20223;-51
2023/07/05 08:46:55;;;;;;;15.15;13.43;;;;;;;-144.30;33.24;80876.84;5048834;28;20235;-49
2023/07/05 08:49:25;;;;;;;16.65;13.70;;;;;;;-144.30;33.41;80954.25;5048990;28;20210;-48
2023/07/05 08:51:52;;;;;;;15.27;13.90;;;;;;;-144.30;33.41;80942.34;5048911;28;20202;-50
2023/07/05 08:54:21;;;;;;;16.52;14.20;;;;;;;-144.30;33.78;80999.94;5049094;28;20188;-50
2023/07/05 08:56:51;;;;;;;14.98;13.45;;;;;;;-144.30;33.65;81027.72;5048882;28;20270;-49
2023/07/05 08:59:26;;;;;;;16.02;14.63;;;;;;;-144.30;33.60;81160.75;5048856;28;20199;-49
2023/07/05 09:01:56;;;;;;;17.15;13.80;;;;;;;-144.30;34.53;81295.75;5048706;28;20278;-47
2023/07/05 09:04:27;;;;;;;14.90;13.40;;;;;;;-144.30;34.55;81470.50;5048619;28;20613;-48
2023/07/05 09:06:59;;;;;;;15.73;14.18;;;;;;;-144.30;34.83;81518.16;5048615;28;20216;-48
2023/07/05 09:09:44;;;;;;;15.77;13.73;;;;;;;-144.30;34.87;81551.91;5048830;28;20211;-49
2023/07/05 09:12:21;;;;;;;14.45;13.05;;;;;;;-144.30;35.11;81591.63;5048770;28;20299;-48
2023/07/05 09:15:02;;;;;;;13.98;12.88;;;;;;;-144.30;35.20;81607.50;5048337;28;20210;-49
2023/07/05 09:17:36;;;;;;;13.65;12.45;;;;;;;-144.30;34.60;81557.88;5049212;28;20192;-49
2023/07/05 09:20:17;;;;;;;14.77;13.02;;;;;;;-144.30;34.84;81547.94;5049193;28;20227;-48
2023/07/05 09:22:47;;;;;;;13.65;12.27;;;;;;;-144.30;35.17;81581.69;5045177;28;20201;-48
2023/07/05 09:25:20;;;;;;;14.25;12.77;;;;;;;-144.30;34.61;81565.81;5027367;28;20212;-47
2023/07/05 09:27:50;;;;;;;13.32;12.00;;;;;;;-144.30;34.26;81452.63;5038088;28;20198;-48
2023/07/05 09:30:24;;;;;;;16.45;13.48;;;;;;;-144.30;34.43;81472.47;5068679;28;20206;-47
2023/07/05 09:33:00;;;;;;;14.18;12.85;;;;;;;-144.30;34.76;81506.25;5068320;28;20652;-49
2023/07/05 09:35:29;;;;;;;13.57;12.23;;;;;;;-144.30;34.57;81504.25;5068369;28;20199;-49
2023/07/05 09:38:04;;;;;;;13.93;12.80;;;;;;;-144.30;34.90;81498.31;5045256;28;20209;-49
2023/07/05 09:40:36;;;;;;;13.70;12.38;;;;;;;-144.30;34.04;81468.50;5039058;28;20607;-56
2023/07/05 09:43:08;;;;;;;13.48;12.40;;;;;;;-144.30;34.01;81412.91;5037745;28;20668;-50
2023/07/05 09:45:35;;;;;;;15.20;13.98;;;;;;;-144.30;34.86;81395.03;5036988;28;20199;-50
2023/07/05 09:48:04;;;;;;;14.68;13.50;;;;;;;-144.30;35.42;81571.78;5037200;28;20196;-47
2023/07/05 09:50:31;;;;;;;15.27;13.75;;;;;;;-144.30;35.33;81569.78;5037729;28;20283;-48
2023/07/05 09:53:03;;;;;;;15.05;13.55;;;;;;;-144.30;35.34;81589.66;5047712;28;20196;-47
2023/07/05 09:55:32;;;;;;;15.52;14.13;;;;;;;-144.30;35.20;81498.31;5052085;28;20207;-47
2023/07/05 09:58:00;;;;;;;14.50;13.00;;;;;;;-144.30;35.43;81468.50;5052136;28;20207;-47
2023/07/05 10:00:35;;;;;;;19.42;14.00;;;;;;;-144.30;36.14;81609.50;5044379;28;20577;-49
2023/07/05 10:03:07;;;;;;;16.92;13.43;;;;;;;-144.30;35.85;81526.09;5032178;28;20222;-50
2023/07/05 10:05:34;;;;;;;13.55;12.50;;;;;;;-144.30;36.00;81585.66;5032060;28;20200;-48
2023/07/05 10:08:04;;;;;;;13.38;12.00;;;;;;;-144.30;35.95;81565.81;5031973;28;20323;-47
2023/07/05 10:10:35;;;;;;;13.70;12.55;;;;;;;-144.30;36.72;81839.84;5031936;28;20209;-48
2023/07/05 10:13:12;;;;;;;12.60;11.68;;;;;;;-144.30;37.42;81905.38;5031912;28;20204;-49
2023/07/05 10:15:42;;;;;;;12.73;11.75;;;;;;;-144.30;37.51;81847.78;5031575;28;20207;-49
2023/07/05 10:18:25;;;;;;;15.25;11.13;;;;;;;-144.30;37.17;81915.31;5031680;28;20197;-48
2023/07/05 10:20:52;;;;;;;11.63;10.52;;;;;;;-144.30;36.75;82062.28;5031592;28;20197;-52
2023/07/05 10:23:22;;;;;;;11.05;10.23;;;;;;;-144.30;37.52;82147.69;5031472;28;20317;-51
2023/07/05 10:25:51;;;;;;;11.77;10.60;;;;;;;-144.30;37.87;82197.34;5031127;28;20255;-48
2023/07/05 10:28:28;;;;;;;10.93;10.00;;;;;;;-144.30;38.45;82219.19;5031630;28;20229;-51
2023/07/05 10:30:57;;;;;;;17.67;12.93;;;;;;;-144.30;40.02;82237.06;5031437;28;20201;-50
2023/07/05 10:33:25;;;;;;;15.60;11.82;;;;;;;-144.30;40.53;82268.84;5031428;28;20276;-50
2023/07/05 10:35:59;;;;;;;11.57;10.63;;;;;;;-144.30;40.19;82324.44;5030885;28;20223;-50
2023/07/05 10:38:28;;;;;;;12.32;11.07;;;;;;;-144.30;40.36;82324.44;5031279;28;20201;-47
2023/07/05 10:41:01;;;;;;;11.65;10.65;;;;;;;-144.30;39.96;82391.97;5031070;28;20204;-48
2023/07/05 10:43:33;;;;;;;13.27;10.70;;;;;;;-144.30;39.85;82397.94;5031132;28;20240;-48
2023/07/05 10:46:02;;;;;;;11.27;10.32;;;;;;;-144.30;39.90;82459.50;5031209;28;20209;-47
2023/07/05 10:48:38;;;;;;;10.55;9.68;;;;;;;-144.30;40.70;82481.34;5031011;28;20292;-47
2023/07/05 10:51:09;;;;;;;12.65;11.40;;;;;;;-144.30;41.26;82523.06;5036601;28;20204;-48
2023/07/05 10:53:36;;;;;;;12.80;11.32;;;;;;;-144.30;41.36;82536.97;5041012;28;20648;-50
2023/07/05 10:56:10;;;;;;;11.35;10.50;;;;;;;-144.30;40.90;82562.78;5030333;28;20195;-49
2023/07/05 10:58:45;;;;;;;12.13;10.95;;;;;;;-144.30;41.08;82550.88;5030331;28;20687;-48
2023/07/05 11:01:16;;;;;;;11.88;10.98;;;;;;;-144.30;41.23;82535.00;5030532;28;20196;-48
2023/07/05 11:03:48;;;;;;;12.10;10.43;;;;;;;-144.30;41.06;82527.03;5029050;28;20218;-50
2023/07/05 11:06:17;;;;;;;11.95;10.98;;;;;;;-144.30;41.89;82523.06;5030551;28;20197;-47
2023/07/05 11:08:46;;;;;;;12.20;11.38;;;;;;;-144.30;41.68;82523.06;5029986;28;20200;-48
2023/07/05 11:11:17;;;;;;;11.65;10.30;;;;;;;-144.30;42.22;82558.81;5029825;28;20197;-47